Terminal Aerodrome Forecast
Issued by NWS Sterling, VA

Current Version | Previous Version | Text Only | Print | Product List | Glossary Off
Versions: 1 2 3 4 5 6 7 8 9 10 11 12 13 14 15 16 17 18 19 20 21 22 23 24 25 26

000
FTUS41 KLWX 202118 AAB
TAFMRB
TAF AMD
KMRB 202118Z 2021/2118 05004KT P6SM SCT013 OVC040
     FM210100 00000KT 4SM BR SCT008 OVC013
     FM211500 00000KT P6SM SCT008 OVC025=

USA.gov is the U.S. government's official web portal to all federal, state and local government web resources and services.